Time,TemperatureF,DewpointF,PressureIn,WindDirection,WindDirectionDegrees,WindSpeedMPH,WindSpeedGustMPH,Humidity,HourlyPrecipIn,Conditions,Clouds,dailyrainin,SoftwareType,DateUTC
2013-07-21 00:04:00,54.7,51.8,29.81,SSW,210,0.0,0.0,90,0.00,,,0.00,LWC V1.00 B64,2013-07-21 07:04:00,
2013-07-21 00:09:00,54.6,51.7,29.81,SSW,203,0.0,3.0,90,0.00,,,0.00,LWC V1.00 B64,2013-07-21 07:09:00,
2013-07-21 00:14:00,54.5,51.6,29.81,SSW,203,0.0,0.0,90,0.00,,,0.00,LWC V1.00 B64,2013-07-21 07:14:00,
2013-07-21 00:19:00,54.4,51.5,29.82,SSW,204,0.0,0.0,90,0.00,,,0.00,LWC V1.00 B64,2013-07-21 07:19:00,
2013-07-21 00:24:00,54.4,51.5,29.81,SSW,204,0.0,1.0,90,0.00,,,0.00,LWC V1.00 B64,2013-07-21 07:24:00,
2013-07-21 00:29:00,54.4,51.5,29.81,SSW,204,0.0,1.0,90,0.00,,,0.00,LWC V1.00 B64,2013-07-21 07:29:00,
2013-07-21 00:34:00,54.4,51.5,29.81,SSW,204,0.0,1.0,90,0.00,,,0.00,LWC V1.00 B64,2013-07-21 07:34:00,
2013-07-21 00:39:00,54.3,51.4,29.81,SSW,204,0.0,1.0,90,0.00,,,0.00,LWC V1.00 B64,2013-07-21 07:39:00,
2013-07-21 00:44:00,54.2,51.3,29.81,SSW,204,0.0,1.0,90,0.00,,,0.00,LWC V1.00 B64,2013-07-21 07:44:00,
2013-07-21 00:49:00,54.1,51.2,29.81,SSW,205,0.0,1.0,90,0.00,,,0.00,LWC V1.00 B64,2013-07-21 07:49:00,
2013-07-21 00:54:00,54.0,50.8,29.81,SSW,203,0.0,1.0,89,0.00,,,0.00,LWC V1.00 B64,2013-07-21 07:54:00,
2013-07-21 00:59:00,54.0,51.1,29.80,SSW,204,0.0,0.0,90,0.00,,,0.00,LWC V1.00 B64,2013-07-21 07:59:00,
2013-07-21 01:04:00,54.0,51.1,29.80,SSW,204,0.0,1.0,90,0.00,,,0.00,LWC V1.00 B64,2013-07-21 08:04:00,
2013-07-21 01:09:00,54.1,51.2,29.80,SSW,205,0.0,3.0,90,0.00,,,0.00,LWC V1.00 B64,2013-07-21 08:09:00,
2013-07-21 01:14:00,54.2,51.3,29.80,SSW,205,0.0,1.0,90,0.00,,,0.00,LWC V1.00 B64,2013-07-21 08:14:00,
2013-07-21 01:19:00,54.2,51.3,29.81,SSW,205,0.0,1.0,90,0.00,,,0.00,LWC V1.00 B64,2013-07-21 08:19:00,
2013-07-21 01:25:00,54.1,51.2,29.80,SSW,205,0.0,0.0,90,0.00,,,0.00,LWC V1.00 B64,2013-07-21 08:25:00,
2013-07-21 01:30:00,54.1,51.2,29.80,SSW,205,0.0,2.0,90,0.00,,,0.00,LWC V1.00 B64,2013-07-21 08:30:00,
2013-07-21 01:35:00,54.0,51.1,29.80,SSW,205,0.0,0.0,90,0.00,,,0.00,LWC V1.00 B64,2013-07-21 08:35:00,
2013-07-21 01:40:00,54.0,51.1,29.80,SSW,205,0.0,1.0,90,0.00,,,0.00,LWC V1.00 B64,2013-07-21 08:40:00,
2013-07-21 01:45:00,54.0,51.1,29.80,SSW,205,0.0,0.0,90,0.00,,,0.00,LWC V1.00 B64,2013-07-21 08:45:00,
2013-07-21 01:50:00,54.0,51.1,29.80,SSW,205,0.0,0.0,90,0.00,,,0.00,LWC V1.00 B64,2013-07-21 08:50:00,
2013-07-21 01:55:00,54.0,51.1,29.80,SSW,205,0.0,1.0,90,0.00,,,0.00,LWC V1.00 B64,2013-07-21 08:55:00,
2013-07-21 02:00:00,54.0,51.1,29.80,SSW,205,0.0,0.0,90,0.00,,,0.00,LWC V1.00 B64,2013-07-21 09:00:00,
2013-07-21 02:05:00,54.0,51.1,29.79,SSW,205,0.0,1.0,90,0.00,,,0.00,LWC V1.00 B64,2013-07-21 09:05:00,
2013-07-21 02:10:00,54.1,51.2,29.80,SSW,205,0.0,0.0,90,0.00,,,0.00,LWC V1.00 B64,2013-07-21 09:10:00,
2013-07-21 02:15:00,54.0,51.1,29.80,SSW,205,1.0,2.0,90,0.00,,,0.00,LWC V1.00 B64,2013-07-21 09:15:00,
2013-07-21 02:20:00,54.0,51.1,29.80,SSW,205,0.0,3.0,90,0.00,,,0.00,LWC V1.00 B64,2013-07-21 09:20:00,
2013-07-21 02:25:00,54.0,51.1,29.80,SSW,205,0.0,2.0,90,0.00,,,0.00,LWC V1.00 B64,2013-07-21 09:25:00,
2013-07-21 02:30:00,54.0,51.1,29.79,SSW,205,0.0,1.0,90,0.00,,,0.00,LWC V1.00 B64,2013-07-21 09:30:00,
2013-07-21 02:35:00,53.9,51.0,29.79,SSW,205,0.0,0.0,90,0.00,,,0.00,LWC V1.00 B64,2013-07-21 09:35:00,
2013-07-21 02:40:00,54.0,51.1,29.79,SSW,205,0.0,1.0,90,0.00,,,0.00,LWC V1.00 B64,2013-07-21 09:40:00,
2013-07-21 02:45:00,54.0,51.1,29.79,SSW,205,0.0,0.0,90,0.00,,,0.00,LWC V1.00 B64,2013-07-21 09:45:00,
2013-07-21 02:50:00,54.0,51.1,29.78,SSW,205,0.0,2.0,90,0.00,,,0.00,LWC V1.00 B64,2013-07-21 09:50:00,
2013-07-21 02:55:00,53.9,51.0,29.79,SSW,204,0.0,2.0,90,0.00,,,0.00,LWC V1.00 B64,2013-07-21 09:55:00,
2013-07-21 03:00:00,53.9,51.0,29.78,SSW,201,0.0,1.0,90,0.00,,,0.00,LWC V1.00 B64,2013-07-21 10:00:00,
2013-07-21 03:05:00,53.9,51.0,29.79,SSW,198,0.0,2.0,90,0.00,,,0.00,LWC V1.00 B64,2013-07-21 10:05:00,
2013-07-21 03:10:00,53.8,50.9,29.79,SSE,159,0.0,0.0,90,0.00,,,0.00,LWC V1.00 B64,2013-07-21 10:10:00,
2013-07-21 03:15:00,53.8,50.9,29.79,SSE,159,3.0,3.0,90,0.00,,,0.00,LWC V1.00 B64,2013-07-21 10:15:00,
2013-07-21 03:20:00,53.8,50.9,29.78,SSE,164,0.0,2.0,90,0.00,,,0.00,LWC V1.00 B64,2013-07-21 10:20:00,
2013-07-21 03:25:00,53.8,50.9,29.79,SSE,153,0.0,4.0,90,0.00,,,0.00,LWC V1.00 B64,2013-07-21 10:25:00,
2013-07-21 03:30:00,53.7,50.8,29.78,SSE,154,0.0,3.0,90,0.00,,,0.00,LWC V1.00 B64,2013-07-21 10:30:00,
2013-07-21 03:35:00,53.7,50.8,29.78,SE,142,1.0,2.0,90,0.00,,,0.00,LWC V1.00 B64,2013-07-21 10:35:00,
2013-07-21 03:40:00,53.6,50.7,29.78,SSE,150,1.0,3.0,90,0.00,,,0.00,LWC V1.00 B64,2013-07-21 10:40:00,
2013-07-21 03:45:00,53.6,50.7,29.78,SSE,150,0.0,1.0,90,0.00,,,0.00,LWC V1.00 B64,2013-07-21 10:45:00,
2013-07-21 03:50:00,53.6,50.7,29.78,SSE,152,2.0,2.0,90,0.00,,,0.00,LWC V1.00 B64,2013-07-21 10:50:00,
2013-07-21 03:55:00,53.6,50.7,29.78,SSE,152,0.0,0.0,90,0.00,,,0.00,LWC V1.00 B64,2013-07-21 10:55:00,
2013-07-21 04:00:00,53.6,50.7,29.78,SSE,150,0.0,1.0,90,0.00,,,0.00,LWC V1.00 B64,2013-07-21 11:00:00,
2013-07-21 04:05:00,53.7,50.8,29.78,SSE,153,1.0,2.0,90,0.00,,,0.00,LWC V1.00 B64,2013-07-21 11:05:00,
2013-07-21 04:10:00,53.7,50.8,29.78,SSE,156,0.0,3.0,90,0.00,,,0.00,LWC V1.00 B64,2013-07-21 11:10:00,
2013-07-21 04:15:00,53.7,51.1,29.79,SSE,156,0.0,2.0,91,0.00,,,0.00,LWC V1.00 B64,2013-07-21 11:15:00,
2013-07-21 04:20:00,53.7,51.1,29.78,South,175,0.0,1.0,91,0.00,,,0.00,LWC V1.00 B64,2013-07-21 11:20:00,
2013-07-21 04:25:00,53.7,51.1,29.78,South,175,2.0,3.0,91,0.00,,,0.00,LWC V1.00 B64,2013-07-21 11:25:00,
2013-07-21 04:30:00,53.9,51.3,29.78,South,174,0.0,0.0,91,0.00,,,0.00,LWC V1.00 B64,2013-07-21 11:30:00,
2013-07-21 04:35:00,53.9,51.0,29.78,South,173,0.0,1.0,90,0.00,,,0.00,LWC V1.00 B64,2013-07-21 11:35:00,
2013-07-21 04:40:00,53.8,51.2,29.79,South,174,0.0,1.0,91,0.00,,,0.00,LWC V1.00 B64,2013-07-21 11:40:00,
2013-07-21 04:45:00,53.7,50.8,29.79,SSE,167,0.0,1.0,90,0.00,,,0.00,LWC V1.00 B64,2013-07-21 11:45:00,
2013-07-21 04:50:00,53.6,50.7,29.79,SSE,167,0.0,1.0,90,0.00,,,0.00,LWC V1.00 B64,2013-07-21 11:50:00,
2013-07-21 04:55:00,53.7,51.1,29.79,SSE,167,0.0,0.0,91,0.00,,,0.00,LWC V1.00 B64,2013-07-21 11:55:00,
2013-07-21 05:00:00,53.8,51.2,29.79,SSE,167,0.0,1.0,91,0.00,,,0.00,LWC V1.00 B64,2013-07-21 12:00:00,
2013-07-21 05:05:00,53.8,51.2,29.79,SSE,167,0.0,1.0,91,0.00,,,0.00,LWC V1.00 B64,2013-07-21 12:05:00,
2013-07-21 05:10:00,53.8,51.2,29.79,SSE,167,0.0,0.0,91,0.00,,,0.00,LWC V1.00 B64,2013-07-21 12:10:00,
2013-07-21 05:15:00,53.8,51.2,29.79,SSE,167,0.0,2.0,91,0.00,,,0.00,LWC V1.00 B64,2013-07-21 12:15:00,
2013-07-21 05:20:00,53.8,51.2,29.79,SSE,167,0.0,2.0,91,0.00,,,0.00,LWC V1.00 B64,2013-07-21 12:20:00,
2013-07-21 05:25:00,53.7,50.8,29.79,SSE,167,0.0,0.0,90,0.00,,,0.00,LWC V1.00 B64,2013-07-21 12:25:00,
2013-07-21 05:30:00,53.6,50.7,29.80,SSE,167,0.0,1.0,90,0.00,,,0.00,LWC V1.00 B64,2013-07-21 12:30:00,
2013-07-21 05:35:00,53.6,50.7,29.79,SSE,167,0.0,1.0,90,0.00,,,0.00,LWC V1.00 B64,2013-07-21 12:35:00,
2013-07-21 05:40:00,53.6,50.7,29.79,SSE,167,0.0,0.0,90,0.00,,,0.00,LWC V1.00 B64,2013-07-21 12:40:00,
2013-07-21 05:45:00,53.5,50.6,29.80,SSE,167,0.0,0.0,90,0.00,,,0.00,LWC V1.00 B64,2013-07-21 12:45:00,
2013-07-21 05:50:00,53.4,50.5,29.79,SSE,167,0.0,1.0,90,0.00,,,0.00,LWC V1.00 B64,2013-07-21 12:50:00,
2013-07-21 05:55:00,53.4,50.5,29.80,SSE,167,0.0,2.0,90,0.00,,,0.00,LWC V1.00 B64,2013-07-21 12:55:00,
2013-07-21 06:00:00,53.3,50.4,29.80,SSE,167,0.0,0.0,90,0.00,,,0.00,LWC V1.00 B64,2013-07-21 13:00:00,
2013-07-21 06:05:00,53.3,50.7,29.81,North,11,0.0,0.0,91,0.00,,,0.00,LWC V1.00 B64,2013-07-21 13:05:00,
2013-07-21 06:10:00,53.3,50.7,29.81,NNE,22,0.0,0.0,91,0.00,,,0.00,LWC V1.00 B64,2013-07-21 13:10:00,
2013-07-21 06:15:00,53.2,50.6,29.81,SSE,148,2.0,4.0,91,0.00,,,0.00,LWC V1.00 B64,2013-07-21 13:15:00,
2013-07-21 06:20:00,53.2,50.6,29.81,SE,136,0.0,0.0,91,0.00,,,0.00,LWC V1.00 B64,2013-07-21 13:20:00,
2013-07-21 06:25:00,53.4,50.8,29.81,SW,217,0.0,0.0,91,0.00,,,0.00,LWC V1.00 B64,2013-07-21 13:25:00,
2013-07-21 06:30:00,53.5,50.9,29.81,SW,215,0.0,2.0,91,0.00,,,0.00,LWC V1.00 B64,2013-07-21 13:30:00,
2013-07-21 06:35:00,53.5,50.9,29.81,SW,215,0.0,1.0,91,0.00,,,0.00,LWC V1.00 B64,2013-07-21 13:35:00,
2013-07-21 06:40:00,53.6,51.0,29.81,SSW,202,1.0,2.0,91,0.00,,,0.00,LWC V1.00 B64,2013-07-21 13:40:00,
2013-07-21 06:45:00,53.5,50.9,29.81,South,176,0.0,1.0,91,0.00,,,0.00,LWC V1.00 B64,2013-07-21 13:45:00,
2013-07-21 06:50:00,53.5,50.9,29.81,South,176,0.0,2.0,91,0.00,,,0.00,LWC V1.00 B64,2013-07-21 13:50:00,
2013-07-21 06:55:00,53.5,50.9,29.81,South,182,0.0,5.0,91,0.00,,,0.00,LWC V1.00 B64,2013-07-21 13:55:00,
2013-07-21 07:00:00,53.5,50.9,29.82,SE,144,0.0,4.0,91,0.00,,,0.00,LWC V1.00 B64,2013-07-21 14:00:00,
2013-07-21 07:05:00,53.5,50.9,29.82,SSE,168,0.0,3.0,91,0.00,,,0.00,LWC V1.00 B64,2013-07-21 14:05:00,
2013-07-21 07:10:00,53.5,50.9,29.82,SSE,167,0.0,2.0,91,0.00,,,0.00,LWC V1.00 B64,2013-07-21 14:10:00,
2013-07-21 07:15:00,53.6,51.0,29.82,SE,138,0.0,5.0,91,0.00,,,0.00,LWC V1.00 B64,2013-07-21 14:15:00,
2013-07-21 07:20:00,53.6,51.0,29.82,SE,146,1.0,4.0,91,0.00,,,0.00,LWC V1.00 B64,2013-07-21 14:20:00,
2013-07-21 07:26:00,53.7,51.1,29.82,SSE,147,2.0,2.0,91,0.00,,,0.00,LWC V1.00 B64,2013-07-21 14:26:00,
2013-07-21 07:31:00,53.8,51.2,29.82,SE,144,0.0,3.0,91,0.00,,,0.00,LWC V1.00 B64,2013-07-21 14:31:00,
2013-07-21 07:36:00,54.0,51.4,29.82,SE,144,0.0,1.0,91,0.00,,,0.00,LWC V1.00 B64,2013-07-21 14:36:00,
2013-07-21 07:41:00,54.1,51.5,29.82,SE,141,0.0,1.0,91,0.00,,,0.00,LWC V1.00 B64,2013-07-21 14:41:00,
2013-07-21 07:46:00,54.3,51.7,29.81,SE,141,0.0,3.0,91,0.00,,,0.00,LWC V1.00 B64,2013-07-21 14:46:00,
2013-07-21 07:51:00,54.6,52.0,29.82,SE,141,0.0,1.0,91,0.00,,,0.00,LWC V1.00 B64,2013-07-21 14:51:00,
2013-07-21 07:56:00,54.9,52.3,29.82,SE,144,2.0,2.0,91,0.00,,,0.00,LWC V1.00 B64,2013-07-21 14:56:00,
2013-07-21 08:01:00,55.2,52.6,29.82,SE,145,0.0,1.0,91,0.00,,,0.00,LWC V1.00 B64,2013-07-21 15:01:00,
2013-07-21 08:06:00,55.4,52.5,29.82,SSE,148,0.0,1.0,90,0.00,,,0.00,LWC V1.00 B64,2013-07-21 15:06:00,
2013-07-21 08:11:00,55.7,52.8,29.83,SSE,148,1.0,1.0,90,0.00,,,0.00,LWC V1.00 B64,2013-07-21 15:11:00,
2013-07-21 08:16:00,56.1,53.2,29.83,SSE,148,0.0,1.0,90,0.00,,,0.00,LWC V1.00 B64,2013-07-21 15:16:00,
2013-07-21 08:21:00,56.3,53.1,29.83,SSE,148,1.0,2.0,89,0.00,,,0.00,LWC V1.00 B64,2013-07-21 15:21:00,
2013-07-21 08:26:00,56.5,53.3,29.83,SSE,148,1.0,1.0,89,0.00,,,0.00,LWC V1.00 B64,2013-07-21 15:26:00,
2013-07-21 08:31:00,56.8,53.3,29.83,SSW,198,1.0,3.0,88,0.00,,,0.00,LWC V1.00 B64,2013-07-21 15:31:00,
2013-07-21 08:36:00,57.0,53.5,29.83,SSW,192,1.0,2.0,88,0.00,,,0.00,LWC V1.00 B64,2013-07-21 15:36:00,
2013-07-21 08:41:00,57.2,53.4,29.83,SSE,168,3.0,4.0,87,0.00,,,0.00,LWC V1.00 B64,2013-07-21 15:41:00,
2013-07-21 08:46:00,57.4,53.2,29.83,SSE,149,3.0,5.0,86,0.00,,,0.00,LWC V1.00 B64,2013-07-21 15:46:00,
2013-07-21 08:51:00,57.5,53.3,29.84,SE,135,2.0,2.0,86,0.00,,,0.00,LWC V1.00 B64,2013-07-21 15:51:00,
2013-07-21 08:56:00,57.7,53.5,29.84,SSE,153,0.0,2.0,86,0.00,,,0.00,LWC V1.00 B64,2013-07-21 15:56:00,
2013-07-21 09:01:00,58.2,54.0,29.84,South,182,2.0,2.0,86,0.00,,,0.00,LWC V1.00 B64,2013-07-21 16:01:00,
2013-07-21 09:06:00,58.7,54.2,29.84,South,181,0.0,2.0,85,0.00,,,0.00,LWC V1.00 B64,2013-07-21 16:06:00,
2013-07-21 09:11:00,59.2,54.7,29.84,South,181,0.0,1.0,85,0.00,,,0.00,LWC V1.00 B64,2013-07-21 16:11:00,
2013-07-21 09:16:00,59.7,54.9,29.84,SSE,164,0.0,2.0,84,0.00,,,0.00,LWC V1.00 B64,2013-07-21 16:16:00,
2013-07-21 09:21:00,60.0,54.5,29.83,SSE,159,0.0,2.0,82,0.00,,,0.00,LWC V1.00 B64,2013-07-21 16:21:00,
2013-07-21 09:26:00,60.5,55.3,29.84,SSE,161,0.0,3.0,83,0.00,,,0.00,LWC V1.00 B64,2013-07-21 16:26:00,
2013-07-21 09:31:00,60.9,55.4,29.84,South,182,2.0,4.0,82,0.00,,,0.00,LWC V1.00 B64,2013-07-21 16:31:00,
2013-07-21 09:36:00,61.3,55.4,29.83,SSE,162,1.0,2.0,81,0.00,,,0.00,LWC V1.00 B64,2013-07-21 16:36:00,
2013-07-21 09:41:00,61.8,55.9,29.83,SSE,163,2.0,3.0,81,0.00,,,0.00,LWC V1.00 B64,2013-07-21 16:41:00,
2013-07-21 09:46:00,62.1,55.5,29.83,South,175,0.0,4.0,79,0.00,,,0.00,LWC V1.00 B64,2013-07-21 16:46:00,
2013-07-21 09:51:00,62.4,55.4,29.83,SE,143,0.0,1.0,78,0.00,,,0.00,LWC V1.00 B64,2013-07-21 16:51:00,
2013-07-21 09:56:00,63.1,56.5,29.83,SSW,196,1.0,4.0,79,0.00,,,0.00,LWC V1.00 B64,2013-07-21 16:56:00,
2013-07-21 10:01:00,63.4,56.4,29.83,SSW,200,0.0,4.0,78,0.00,,,0.00,LWC V1.00 B64,2013-07-21 17:01:00,
2013-07-21 10:06:00,63.7,56.3,29.83,SSW,203,1.0,2.0,77,0.00,,,0.00,LWC V1.00 B64,2013-07-21 17:06:00,
2013-07-21 10:11:00,64.0,56.6,29.83,South,172,0.0,2.0,77,0.00,,,0.00,LWC V1.00 B64,2013-07-21 17:11:00,
2013-07-21 10:16:00,64.2,56.1,29.83,SE,146,0.0,4.0,75,0.00,,,0.00,LWC V1.00 B64,2013-07-21 17:16:00,
2013-07-21 10:21:00,64.3,56.2,29.83,South,182,1.0,6.0,75,0.00,,,0.00,LWC V1.00 B64,2013-07-21 17:21:00,
2013-07-21 10:26:00,64.5,56.4,29.83,South,169,2.0,4.0,75,0.00,,,0.00,LWC V1.00 B64,2013-07-21 17:26:00,
2013-07-21 10:31:00,64.7,55.8,29.83,SSE,165,4.0,6.0,73,0.00,,,0.00,LWC V1.00 B64,2013-07-21 17:31:00,
2013-07-21 10:36:00,64.7,56.2,29.83,SSE,153,3.0,5.0,74,0.00,,,0.00,LWC V1.00 B64,2013-07-21 17:36:00,
2013-07-21 10:41:00,64.6,55.7,29.83,SE,144,0.0,7.0,73,0.00,,,0.00,LWC V1.00 B64,2013-07-21 17:41:00,
2013-07-21 10:46:00,64.9,56.4,29.83,South,179,1.0,4.0,74,0.00,,,0.00,LWC V1.00 B64,2013-07-21 17:46:00,
2013-07-21 10:51:00,65.1,56.2,29.84,SE,141,2.0,7.0,73,0.00,,,0.00,LWC V1.00 B64,2013-07-21 17:51:00,
2013-07-21 10:56:00,65.5,57.0,29.84,South,169,1.0,5.0,74,0.00,,,0.00,LWC V1.00 B64,2013-07-21 17:56:00,
2013-07-21 11:01:00,65.6,55.9,29.84,South,172,0.0,4.0,71,0.00,,,0.00,LWC V1.00 B64,2013-07-21 18:01:00,
2013-07-21 11:06:00,65.8,56.5,29.84,South,184,4.0,4.0,72,0.00,,,0.00,LWC V1.00 B64,2013-07-21 18:06:00,
2013-07-21 11:11:00,66.2,56.5,29.84,South,183,1.0,9.0,71,0.00,,,0.00,LWC V1.00 B64,2013-07-21 18:11:00,
2013-07-21 11:16:00,66.5,56.4,29.84,SSW,208,0.0,5.0,70,0.00,,,0.00,LWC V1.00 B64,2013-07-21 18:16:00,
2013-07-21 11:21:00,66.9,57.2,29.84,SSW,207,4.0,5.0,71,0.00,,,0.00,LWC V1.00 B64,2013-07-21 18:21:00,
2013-07-21 11:26:00,67.3,57.2,29.84,SSE,155,1.0,4.0,70,0.00,,,0.00,LWC V1.00 B64,2013-07-21 18:26:00,
2013-07-21 11:31:00,67.5,57.0,29.84,SSW,193,0.0,5.0,69,0.00,,,0.00,LWC V1.00 B64,2013-07-21 18:31:00,
2013-07-21 11:36:00,68.0,57.8,29.84,SSW,204,2.0,5.0,70,0.00,,,0.00,LWC V1.00 B64,2013-07-21 18:36:00,
2013-07-21 11:41:00,68.4,57.8,29.84,South,191,3.0,4.0,69,0.00,,,0.00,LWC V1.00 B64,2013-07-21 18:41:00,
2013-07-21 11:46:00,68.7,58.5,29.84,SSW,199,3.0,4.0,70,0.00,,,0.00,LWC V1.00 B64,2013-07-21 18:46:00,
2013-07-21 11:51:00,68.7,58.1,29.85,South,174,2.0,5.0,69,0.00,,,0.00,LWC V1.00 B64,2013-07-21 18:51:00,
2013-07-21 11:56:00,68.7,58.1,29.85,South,184,4.0,7.0,69,0.00,,,0.00,LWC V1.00 B64,2013-07-21 18:56:00,
2013-07-21 12:01:00,69.0,58.0,29.85,SSW,200,1.0,6.0,68,0.00,,,0.00,LWC V1.00 B64,2013-07-21 19:01:00,
2013-07-21 12:06:00,69.0,58.4,29.85,SSW,198,0.0,4.0,69,0.00,,,0.00,LWC V1.00 B64,2013-07-21 19:06:00,
2013-07-21 12:11:00,69.1,58.1,29.85,SSW,213,3.0,7.0,68,0.00,,,0.00,LWC V1.00 B64,2013-07-21 19:11:00,
2013-07-21 12:16:00,69.1,58.5,29.84,SSW,198,4.0,4.0,69,0.00,,,0.00,LWC V1.00 B64,2013-07-21 19:16:00,
2013-07-21 12:21:00,69.4,58.0,29.84,South,191,1.0,7.0,67,0.00,,,0.00,LWC V1.00 B64,2013-07-21 19:21:00,
2013-07-21 12:26:00,69.7,58.7,29.84,SW,216,2.0,5.0,68,0.00,,,0.00,LWC V1.00 B64,2013-07-21 19:26:00,
2013-07-21 12:31:00,70.1,58.6,29.84,SW,219,3.0,5.0,67,0.00,,,0.00,LWC V1.00 B64,2013-07-21 19:31:00,
2013-07-21 12:36:00,70.5,58.2,29.84,South,171,0.0,3.0,65,0.00,,,0.00,LWC V1.00 B64,2013-07-21 19:36:00,
2013-07-21 12:41:00,71.0,59.1,29.84,SSW,204,0.0,5.0,66,0.00,,,0.00,LWC V1.00 B64,2013-07-21 19:41:00,
2013-07-21 12:46:00,71.6,59.6,29.84,South,170,2.0,3.0,66,0.00,,,0.00,LWC V1.00 B64,2013-07-21 19:46:00,
2013-07-21 12:51:00,72.2,60.2,29.84,SSW,209,0.0,4.0,66,0.00,,,0.00,LWC V1.00 B64,2013-07-21 19:51:00,
2013-07-21 12:56:00,73.1,60.6,29.84,SSW,205,2.0,5.0,65,0.00,,,0.00,LWC V1.00 B64,2013-07-21 19:56:00,
2013-07-21 13:01:00,73.8,61.3,29.84,SSW,213,2.0,4.0,65,0.00,,,0.00,LWC V1.00 B64,2013-07-21 20:01:00,
2013-07-21 13:06:00,74.1,61.1,29.83,SSW,209,0.0,4.0,64,0.00,,,0.00,LWC V1.00 B64,2013-07-21 20:06:00,
2013-07-21 13:11:00,74.7,61.2,29.83,SSW,213,4.0,4.0,63,0.00,,,0.00,LWC V1.00 B64,2013-07-21 20:11:00,
2013-07-21 13:16:00,75.2,61.3,29.83,SSW,202,1.0,3.0,62,0.00,,,0.00,LWC V1.00 B64,2013-07-21 20:16:00,
2013-07-21 13:21:00,75.3,60.9,29.83,SSW,211,0.0,3.0,61,0.00,,,0.00,LWC V1.00 B64,2013-07-21 20:21:00,
2013-07-21 13:26:00,75.6,60.7,29.83,SW,221,3.0,7.0,60,0.00,,,0.00,LWC V1.00 B64,2013-07-21 20:26:00,
2013-07-21 13:31:00,75.5,61.5,29.83,South,186,0.0,3.0,62,0.00,,,0.00,LWC V1.00 B64,2013-07-21 20:31:00,
2013-07-21 13:36:00,76.1,61.2,29.83,SW,215,3.0,4.0,60,0.00,,,0.00,LWC V1.00 B64,2013-07-21 20:36:00,
2013-07-21 13:41:00,76.6,61.7,29.83,SW,217,3.0,5.0,60,0.00,,,0.00,LWC V1.00 B64,2013-07-21 20:41:00,
2013-07-21 13:46:00,76.6,61.2,29.83,SSW,210,4.0,5.0,59,0.00,,,0.00,LWC V1.00 B64,2013-07-21 20:46:00,
2013-07-21 13:51:00,76.6,60.7,29.82,SSW,209,2.0,3.0,58,0.00,,,0.00,LWC V1.00 B64,2013-07-21 20:51:00,
2013-07-21 13:56:00,76.6,60.7,29.83,SSW,211,1.0,4.0,58,0.00,,,0.00,LWC V1.00 B64,2013-07-21 20:56:00,
2013-07-21 14:01:00,77.0,61.1,29.82,SSW,206,1.0,3.0,58,0.00,,,0.00,LWC V1.00 B64,2013-07-21 21:01:00,
2013-07-21 14:06:00,77.3,61.3,29.82,SSW,201,3.0,5.0,58,0.00,,,0.00,LWC V1.00 B64,2013-07-21 21:06:00,
2013-07-21 14:11:00,77.2,61.3,29.82,SSW,209,1.0,4.0,58,0.00,,,0.00,LWC V1.00 B64,2013-07-21 21:11:00,
2013-07-21 14:16:00,77.3,60.9,29.82,SSW,209,0.0,6.0,57,0.00,,,0.00,LWC V1.00 B64,2013-07-21 21:16:00,
2013-07-21 14:21:00,77.3,61.3,29.82,SSW,200,3.0,6.0,58,0.00,,,0.00,LWC V1.00 B64,2013-07-21 21:21:00,
2013-07-21 14:26:00,76.8,60.9,29.82,SSW,205,3.0,6.0,58,0.00,,,0.00,LWC V1.00 B64,2013-07-21 21:26:00,
2013-07-21 14:31:00,76.9,61.0,29.82,SSW,192,1.0,5.0,58,0.00,,,0.00,LWC V1.00 B64,2013-07-21 21:31:00,
2013-07-21 14:36:00,76.5,60.6,29.82,SSW,209,2.0,5.0,58,0.00,,,0.00,LWC V1.00 B64,2013-07-21 21:36:00,
2013-07-21 14:41:00,76.0,60.1,29.82,SW,219,3.0,8.0,58,0.00,,,0.00,LWC V1.00 B64,2013-07-21 21:41:00,
2013-07-21 14:46:00,75.9,61.0,29.83,SSW,211,3.0,7.0,60,0.00,,,0.00,LWC V1.00 B64,2013-07-21 21:46:00,
2013-07-21 14:51:00,75.7,59.9,29.82,SW,215,5.0,6.0,58,0.00,,,0.00,LWC V1.00 B64,2013-07-21 21:51:00,
2013-07-21 14:56:00,75.7,59.9,29.82,SSW,211,5.0,7.0,58,0.00,,,0.00,LWC V1.00 B64,2013-07-21 21:56:00,
2013-07-21 15:01:00,75.8,60.4,29.82,SSW,194,1.0,6.0,59,0.00,,,0.00,LWC V1.00 B64,2013-07-21 22:01:00,
2013-07-21 15:06:00,76.2,60.8,29.82,SSW,209,0.0,5.0,59,0.00,,,0.00,LWC V1.00 B64,2013-07-21 22:06:00,
2013-07-21 15:11:00,76.7,60.8,29.82,SSW,200,0.0,3.0,58,0.00,,,0.00,LWC V1.00 B64,2013-07-21 22:11:00,
2013-07-21 15:16:00,76.6,60.2,29.82,SW,216,2.0,7.0,57,0.00,,,0.00,LWC V1.00 B64,2013-07-21 22:16:00,
2013-07-21 15:21:00,76.3,61.4,29.82,SSW,202,3.0,4.0,60,0.00,,,0.00,LWC V1.00 B64,2013-07-21 22:21:00,
2013-07-21 15:26:00,76.4,60.0,29.81,SSW,205,6.0,9.0,57,0.00,,,0.00,LWC V1.00 B64,2013-07-21 22:26:00,
2013-07-21 15:31:00,75.8,59.5,29.81,South,177,2.0,6.0,57,0.00,,,0.00,LWC V1.00 B64,2013-07-21 22:31:00,
2013-07-21 15:36:00,75.6,60.2,29.81,SSW,209,4.0,12.0,59,0.00,,,0.00,LWC V1.00 B64,2013-07-21 22:36:00,
2013-07-21 15:41:00,75.3,60.0,29.81,SW,215,3.0,7.0,59,0.00,,,0.00,LWC V1.00 B64,2013-07-21 22:41:00,
2013-07-21 15:46:00,75.4,59.6,29.81,SW,219,1.0,7.0,58,0.00,,,0.00,LWC V1.00 B64,2013-07-21 22:46:00,
2013-07-21 15:51:00,75.5,60.2,29.81,SW,221,3.0,7.0,59,0.00,,,0.00,LWC V1.00 B64,2013-07-21 22:51:00,
2013-07-21 15:56:00,75.9,60.0,29.81,SSW,210,0.0,4.0,58,0.00,,,0.00,LWC V1.00 B64,2013-07-21 22:56:00,
2013-07-21 16:01:00,76.0,59.6,29.81,SSW,209,4.0,4.0,57,0.00,,,0.00,LWC V1.00 B64,2013-07-21 23:01:00,
2013-07-21 16:06:00,75.5,60.2,29.81,SSW,202,8.0,13.0,59,0.00,,,0.00,LWC V1.00 B64,2013-07-21 23:06:00,
2013-07-21 16:11:00,74.7,59.9,29.81,SSW,202,3.0,6.0,60,0.00,,,0.00,LWC V1.00 B64,2013-07-21 23:11:00,
2013-07-21 16:16:00,74.4,59.6,29.80,SSW,196,2.0,6.0,60,0.00,,,0.00,LWC V1.00 B64,2013-07-21 23:16:00,
2013-07-21 16:21:00,74.5,59.7,29.81,SSW,207,1.0,4.0,60,0.00,,,0.00,LWC V1.00 B64,2013-07-21 23:21:00,
2013-07-21 16:26:00,74.2,59.9,29.80,SW,215,2.0,12.0,61,0.00,,,0.00,LWC V1.00 B64,2013-07-21 23:26:00,
2013-07-21 16:31:00,74.0,59.7,29.80,SW,217,1.0,7.0,61,0.00,,,0.00,LWC V1.00 B64,2013-07-21 23:31:00,
2013-07-21 16:36:00,74.1,59.8,29.81,SSW,213,0.0,6.0,61,0.00,,,0.00,LWC V1.00 B64,2013-07-21 23:36:00,
2013-07-21 16:41:00,74.0,59.7,29.81,SSW,210,0.0,4.0,61,0.00,,,0.00,LWC V1.00 B64,2013-07-21 23:41:00,
2013-07-21 16:46:00,73.8,59.5,29.80,SSW,200,0.0,10.0,61,0.00,,,0.00,LWC V1.00 B64,2013-07-21 23:46:00,
2013-07-21 16:51:00,73.7,59.4,29.80,SSW,205,2.0,4.0,61,0.00,,,0.00,LWC V1.00 B64,2013-07-21 23:51:00,
2013-07-21 16:56:00,73.4,59.6,29.80,SSW,211,3.0,6.0,62,0.00,,,0.00,LWC V1.00 B64,2013-07-21 23:56:00,
2013-07-21 17:01:00,73.0,59.2,29.80,SW,216,2.0,9.0,62,0.00,,,0.00,LWC V1.00 B64,2013-07-22 00:01:00,
2013-07-21 17:06:00,72.8,59.5,29.80,South,189,0.0,5.0,63,0.00,,,0.00,LWC V1.00 B64,2013-07-22 00:06:00,
2013-07-21 17:11:00,72.6,58.8,29.80,SSW,208,2.0,4.0,62,0.00,,,0.00,LWC V1.00 B64,2013-07-22 00:11:00,
2013-07-21 17:16:00,72.2,58.9,29.80,SW,214,1.0,3.0,63,0.00,,,0.00,LWC V1.00 B64,2013-07-22 00:16:00,
2013-07-21 17:21:00,71.8,58.5,29.80,SW,228,0.0,4.0,63,0.00,,,0.00,LWC V1.00 B64,2013-07-22 00:21:00,
2013-07-21 17:26:00,71.6,59.2,29.80,SSW,197,1.0,3.0,65,0.00,,,0.00,LWC V1.00 B64,2013-07-22 00:26:00,
2013-07-21 17:31:00,71.2,58.4,29.80,SSW,192,0.0,5.0,64,0.00,,,0.00,LWC V1.00 B64,2013-07-22 00:31:00,
2013-07-21 17:36:00,70.8,58.4,29.80,SSW,209,0.0,5.0,65,0.00,,,0.00,LWC V1.00 B64,2013-07-22 00:36:00,
2013-07-21 17:41:00,70.2,57.9,29.80,SSW,192,1.0,7.0,65,0.00,,,0.00,LWC V1.00 B64,2013-07-22 00:41:00,
2013-07-21 17:46:00,69.7,57.8,29.80,SSW,213,1.0,4.0,66,0.00,,,0.00,LWC V1.00 B64,2013-07-22 00:46:00,
2013-07-21 17:51:00,69.0,57.6,29.80,SSW,202,4.0,6.0,67,0.00,,,0.00,LWC V1.00 B64,2013-07-22 00:51:00,
2013-07-21 17:56:00,68.8,57.8,29.80,SSW,208,3.0,6.0,68,0.00,,,0.00,LWC V1.00 B64,2013-07-22 00:56:00,
2013-07-21 18:01:00,68.5,57.9,29.80,SSW,205,0.0,5.0,69,0.00,,,0.00,LWC V1.00 B64,2013-07-22 01:01:00,
2013-07-21 18:06:00,68.2,57.6,29.80,SW,214,3.0,5.0,69,0.00,,,0.00,LWC V1.00 B64,2013-07-22 01:06:00,
2013-07-21 18:11:00,67.2,57.1,29.80,SSW,196,1.0,2.0,70,0.00,,,0.00,LWC V1.00 B64,2013-07-22 01:11:00,
2013-07-21 18:16:00,66.8,56.7,29.81,SW,215,4.0,5.0,70,0.00,,,0.00,LWC V1.00 B64,2013-07-22 01:16:00,
2013-07-21 18:21:00,66.3,57.0,29.81,SSW,197,1.0,4.0,72,0.00,,,0.00,LWC V1.00 B64,2013-07-22 01:21:00,
2013-07-21 18:26:00,65.8,56.5,29.81,SSW,193,0.0,3.0,72,0.00,,,0.00,LWC V1.00 B64,2013-07-22 01:26:00,
2013-07-21 18:31:00,65.5,56.2,29.81,SW,221,4.0,5.0,72,0.00,,,0.00,LWC V1.00 B64,2013-07-22 01:31:00,
2013-07-21 18:36:00,64.5,55.6,29.82,SW,222,2.0,3.0,73,0.00,,,0.00,LWC V1.00 B64,2013-07-22 01:36:00,
2013-07-21 18:41:00,64.2,55.7,29.82,SW,218,0.0,3.0,74,0.00,,,0.00,LWC V1.00 B64,2013-07-22 01:41:00,
2013-07-21 18:46:00,63.7,55.3,29.82,SSW,206,0.0,3.0,74,0.00,,,0.00,LWC V1.00 B64,2013-07-22 01:46:00,
2013-07-21 18:51:00,63.2,54.8,29.82,SSW,206,1.0,7.0,74,0.00,,,0.00,LWC V1.00 B64,2013-07-22 01:51:00,
2013-07-21 18:56:00,62.5,54.5,29.83,SSW,211,3.0,4.0,75,0.00,,,0.00,LWC V1.00 B64,2013-07-22 01:56:00,
2013-07-21 19:01:00,62.0,54.3,29.83,SSW,212,0.0,4.0,76,0.00,,,0.00,LWC V1.00 B64,2013-07-22 02:01:00,
2013-07-21 19:06:00,61.7,54.1,29.83,SSW,205,0.0,2.0,76,0.00,,,0.00,LWC V1.00 B64,2013-07-22 02:06:00,
2013-07-21 19:11:00,61.3,54.0,29.83,SW,214,1.0,3.0,77,0.00,,,0.00,LWC V1.00 B64,2013-07-22 02:11:00,
2013-07-21 19:16:00,60.9,54.0,29.84,SSW,206,0.0,3.0,78,0.00,,,0.00,LWC V1.00 B64,2013-07-22 02:16:00,
2013-07-21 19:21:00,60.5,54.0,29.84,SW,225,4.0,8.0,79,0.00,,,0.00,LWC V1.00 B64,2013-07-22 02:21:00,
2013-07-21 19:26:00,60.2,53.7,29.84,SSW,207,0.0,4.0,79,0.00,,,0.00,LWC V1.00 B64,2013-07-22 02:26:00,
2013-07-21 19:31:00,59.9,53.7,29.84,SSW,202,1.0,4.0,80,0.00,,,0.00,LWC V1.00 B64,2013-07-22 02:31:00,
2013-07-21 19:36:00,59.5,53.3,29.84,SSW,203,0.0,5.0,80,0.00,,,0.00,LWC V1.00 B64,2013-07-22 02:36:00,
2013-07-21 19:41:00,58.9,53.1,29.84,SW,218,1.0,9.0,81,0.00,,,0.00,LWC V1.00 B64,2013-07-22 02:41:00,
2013-07-21 19:46:00,58.4,52.6,29.84,SW,219,0.0,5.0,81,0.00,,,0.00,LWC V1.00 B64,2013-07-22 02:46:00,
2013-07-21 19:51:00,57.9,52.8,29.84,SSW,213,6.0,6.0,83,0.00,,,0.00,LWC V1.00 B64,2013-07-22 02:51:00,
2013-07-21 19:56:00,57.8,52.7,29.84,SW,225,9.0,9.0,83,0.00,,,0.00,LWC V1.00 B64,2013-07-22 02:56:00,
2013-07-21 20:01:00,57.6,52.8,29.84,SSW,199,0.0,6.0,84,0.00,,,0.00,LWC V1.00 B64,2013-07-22 03:01:00,
2013-07-21 20:06:00,57.3,52.5,29.84,SSW,209,1.0,3.0,84,0.00,,,0.00,LWC V1.00 B64,2013-07-22 03:06:00,
2013-07-21 20:11:00,57.1,52.3,29.84,SSW,207,5.0,10.0,84,0.00,,,0.00,LWC V1.00 B64,2013-07-22 03:11:00,
2013-07-21 20:16:00,56.9,52.4,29.84,SW,217,3.0,10.0,85,0.00,,,0.00,LWC V1.00 B64,2013-07-22 03:16:00,
2013-07-21 20:21:00,56.7,52.2,29.85,SW,223,0.0,1.0,85,0.00,,,0.00,LWC V1.00 B64,2013-07-22 03:21:00,
2013-07-21 20:26:00,56.6,52.5,29.85,WSW,244,7.0,7.0,86,0.00,,,0.00,LWC V1.00 B64,2013-07-22 03:26:00,
2013-07-21 20:31:00,56.4,51.9,29.85,SW,219,0.0,5.0,85,0.00,,,0.00,LWC V1.00 B64,2013-07-22 03:31:00,
2013-07-21 20:36:00,56.4,52.3,29.85,SW,223,0.0,1.0,86,0.00,,,0.00,LWC V1.00 B64,2013-07-22 03:36:00,
2013-07-21 20:41:00,56.2,52.1,29.85,SW,222,0.0,3.0,86,0.00,,,0.00,LWC V1.00 B64,2013-07-22 03:41:00,
2013-07-21 20:46:00,56.1,52.0,29.85,SW,236,0.0,0.0,86,0.00,,,0.00,LWC V1.00 B64,2013-07-22 03:46:00,
2013-07-21 20:51:00,56.0,51.9,29.85,SW,223,0.0,4.0,86,0.00,,,0.00,LWC V1.00 B64,2013-07-22 03:51:00,
2013-07-21 20:56:00,55.9,51.8,29.86,SW,214,0.0,2.0,86,0.00,,,0.00,LWC V1.00 B64,2013-07-22 03:56:00,
2013-07-21 21:01:00,55.8,51.7,29.86,SW,215,0.0,0.0,86,0.00,,,0.00,LWC V1.00 B64,2013-07-22 04:01:00,
2013-07-21 21:04:00,55.8,52.0,29.86,SSW,212,0.0,5.0,87,0.00,,,0.00,LWC V1.00 B64,2013-07-22 04:04:00,
2013-07-21 21:05:00,55.8,52.0,29.86,SSW,212,0.0,5.0,87,0.00,,,0.00,LWC V1.00 B64,2013-07-22 04:05:00,
2013-07-21 21:06:00,55.9,52.1,29.86,SSW,212,0.0,1.0,87,0.00,,,0.00,LWC V1.00 B64,2013-07-22 04:06:00,
2013-07-21 21:08:00,55.9,52.1,29.87,SSW,211,0.0,2.0,87,0.00,,,0.00,LWC V1.00 B64,2013-07-22 04:08:00,
2013-07-21 21:13:00,55.8,52.0,29.86,SW,221,4.0,5.0,87,0.00,,,0.00,LWC V1.00 B64,2013-07-22 04:13:00,
2013-07-21 21:18:00,55.8,52.0,29.87,SW,219,0.0,3.0,87,0.00,,,0.00,LWC V1.00 B64,2013-07-22 04:18:00,
2013-07-21 21:23:00,55.7,51.9,29.87,SW,217,0.0,6.0,87,0.00,,,0.00,LWC V1.00 B64,2013-07-22 04:23:00,
2013-07-21 21:28:00,55.7,51.9,29.87,SW,219,0.0,1.0,87,0.00,,,0.00,LWC V1.00 B64,2013-07-22 04:28:00,
2013-07-21 21:33:00,55.7,52.2,29.88,SSW,204,3.0,5.0,88,0.00,,,0.00,LWC V1.00 B64,2013-07-22 04:33:00,
2013-07-21 21:38:00,55.6,52.1,29.88,SW,216,0.0,2.0,88,0.00,,,0.00,LWC V1.00 B64,2013-07-22 04:38:00,
2013-07-21 21:43:00,55.6,52.1,29.88,SW,215,0.0,1.0,88,0.00,,,0.00,LWC V1.00 B64,2013-07-22 04:43:00,
2013-07-21 21:48:00,55.5,52.0,29.88,SW,215,0.0,0.0,88,0.00,,,0.00,LWC V1.00 B64,2013-07-22 04:48:00,
2013-07-21 21:53:00,55.4,51.9,29.88,SW,216,0.0,1.0,88,0.00,,,0.00,LWC V1.00 B64,2013-07-22 04:53:00,
2013-07-21 21:58:00,55.4,51.9,29.88,SW,216,0.0,1.0,88,0.00,,,0.00,LWC V1.00 B64,2013-07-22 04:58:00,
2013-07-21 22:03:00,55.3,51.8,29.88,SW,215,0.0,2.0,88,0.00,,,0.00,LWC V1.00 B64,2013-07-22 05:03:00,
2013-07-21 22:08:00,55.4,51.9,29.89,SW,216,0.0,0.0,88,0.00,,,0.00,LWC V1.00 B64,2013-07-22 05:08:00,
2013-07-21 22:13:00,55.3,51.8,29.89,SW,216,0.0,0.0,88,0.00,,,0.00,LWC V1.00 B64,2013-07-22 05:13:00,
2013-07-21 22:18:00,55.2,51.7,29.89,SW,215,0.0,0.0,88,0.00,,,0.00,LWC V1.00 B64,2013-07-22 05:18:00,
2013-07-21 22:23:00,55.0,51.5,29.89,SW,216,0.0,0.0,88,0.00,,,0.00,LWC V1.00 B64,2013-07-22 05:23:00,
2013-07-21 22:28:00,54.9,51.4,29.89,SW,216,0.0,0.0,88,0.00,,,0.00,LWC V1.00 B64,2013-07-22 05:28:00,
2013-07-21 22:33:00,54.7,51.2,29.89,SW,216,0.0,0.0,88,0.00,,,0.00,LWC V1.00 B64,2013-07-22 05:33:00,
2013-07-21 22:38:00,54.6,51.1,29.89,SW,215,0.0,0.0,88,0.00,,,0.00,LWC V1.00 B64,2013-07-22 05:38:00,
2013-07-21 22:43:00,54.4,50.9,29.89,SW,217,0.0,1.0,88,0.00,,,0.00,LWC V1.00 B64,2013-07-22 05:43:00,
2013-07-21 22:48:00,54.3,50.8,29.89,SW,217,0.0,0.0,88,0.00,,,0.00,LWC V1.00 B64,2013-07-22 05:48:00,
2013-07-21 22:53:00,54.3,51.1,29.90,SW,217,0.0,3.0,89,0.00,,,0.00,LWC V1.00 B64,2013-07-22 05:53:00,
2013-07-21 22:58:00,54.5,51.3,29.90,SW,217,0.0,0.0,89,0.00,,,0.00,LWC V1.00 B64,2013-07-22 05:58:00,
2013-07-21 23:03:00,54.6,51.4,29.89,SW,217,1.0,3.0,89,0.00,,,0.00,LWC V1.00 B64,2013-07-22 06:03:00,
2013-07-21 23:08:00,54.8,51.6,29.90,SW,217,0.0,0.0,89,0.00,,,0.00,LWC V1.00 B64,2013-07-22 06:08:00,
2013-07-21 23:13:00,54.8,51.6,29.89,SW,217,0.0,0.0,89,0.00,,,0.00,LWC V1.00 B64,2013-07-22 06:13:00,
2013-07-21 23:18:00,54.6,51.4,29.89,SW,217,0.0,0.0,89,0.00,,,0.00,LWC V1.00 B64,2013-07-22 06:18:00,
2013-07-21 23:23:00,54.7,51.5,29.89,SW,217,0.0,1.0,89,0.00,,,0.00,LWC V1.00 B64,2013-07-22 06:23:00,
2013-07-21 23:28:00,54.7,51.5,29.89,SW,217,0.0,1.0,89,0.00,,,0.00,LWC V1.00 B64,2013-07-22 06:28:00,
2013-07-21 23:33:00,54.4,51.2,29.89,SW,217,0.0,0.0,89,0.00,,,0.00,LWC V1.00 B64,2013-07-22 06:33:00,
2013-07-21 23:38:00,54.2,51.0,29.89,SW,217,0.0,0.0,89,0.00,,,0.00,LWC V1.00 B64,2013-07-22 06:38:00,
2013-07-21 23:43:00,54.2,51.0,29.89,SW,217,0.0,0.0,89,0.00,,,0.00,LWC V1.00 B64,2013-07-22 06:43:00,
2013-07-21 23:48:00,54.1,50.9,29.89,SW,217,0.0,0.0,89,0.00,,,0.00,LWC V1.00 B64,2013-07-22 06:48:00,
2013-07-21 23:53:00,54.1,51.2,29.90,SW,217,0.0,0.0,90,0.00,,,0.00,LWC V1.00 B64,2013-07-22 06:53:00,
2013-07-21 23:58:00,54.1,51.2,29.90,SW,217,0.0,1.0,90,0.00,,,0.00,LWC V1.00 B64,2013-07-22 06:58:00,